Terminal Aerodrome Forecast
Issued by NWS

Home | Current Version | Previous Version | Text Only | Print | Product List | Glossary On
Versions: 1 2 3 4 5 6 7 8 9 10 11 12 13 14 15 16 17 18 19 20
000
FTUS45 KFGZ 011126
TAFSEZ
TAF
KSEZ 011126Z 0112/0212 VRB06KT P6SM SCT070 SCT120
     FM011900 20009KT P6SM SCT070
     FM020200 VRB06KT P6SM FEW050 SCT200
      AMD NOT SKED=

USA.gov is the U.S. government's official web portal to all federal, state and local government web resources and services.